Time;durP1;ratioP1;P1;durP2;ratioP2;P2;SDS_P1;SDS_P2;PMS_P1;PMS_P2;Temp;Humidity;BMP_temperature;BMP_pressure;BME280_temperature;BME280_humidity;BME280_pressure;Samples;Min_cycle;Max_cycle;Signal;HPM_P1;HPM_P2
2021/08/10 00:01:14;;;;;;;5.43;4.93;;;24.30;99.90;;;;;;5032394;28;20030;-69
2021/08/10 00:03:39;;;;;;;5.68;5.10;;;24.30;99.90;;;;;;5032571;28;20025;-69
2021/08/10 00:06:05;;;;;;;5.00;4.60;;;24.40;99.90;;;;;;5030764;28;20117;-70
2021/08/10 00:08:31;;;;;;;8.68;4.53;;;24.40;99.90;;;;;;5032204;28;20022;-70
2021/08/10 00:10:57;;;;;;;8.68;4.50;;;24.50;99.90;;;;;;5030981;28;20546;-70
2021/08/10 00:13:23;;;;;;;5.78;4.47;;;24.50;99.90;;;;;;5032202;28;20030;-70
2021/08/10 00:15:49;;;;;;;5.47;4.88;;;24.50;99.90;;;;;;5032168;28;20025;-70
2021/08/10 00:18:15;;;;;;;5.53;5.00;;;24.50;99.90;;;;;;5030500;28;20112;-69
2021/08/10 00:20:41;;;;;;;5.65;4.50;;;24.40;99.90;;;;;;5032103;28;20038;-70
2021/08/10 00:23:07;;;;;;;8.18;4.20;;;24.40;99.90;;;;;;5031692;28;20468;-70
2021/08/10 00:25:33;;;;;;;5.70;4.35;;;24.40;99.90;;;;;;5032139;28;20056;-70
2021/08/10 00:27:59;;;;;;;4.65;4.22;;;24.30;99.90;;;;;;5032393;28;20357;-70
2021/08/10 00:30:25;;;;;;;4.57;4.18;;;24.00;99.90;;;;;;5031075;28;20029;-70
2021/08/10 00:32:51;;;;;;;4.68;4.28;;;23.90;99.90;;;;;;5032067;28;20025;-69
2021/08/10 00:35:17;;;;;;;5.80;4.78;;;23.80;99.90;;;;;;5032261;28;20026;-69
2021/08/10 00:37:44;;;;;;;6.38;4.30;;;23.90;99.90;;;;;;5032262;28;20487;-69
2021/08/10 00:40:12;;;;;;;9.25;5.03;;;24.00;99.90;;;;;;5030674;28;20040;-69
2021/08/10 00:42:37;;;;;;;8.07;4.20;;;24.20;99.90;;;;;;5030533;28;20029;-69
2021/08/10 00:45:05;;;;;;;11.52;4.68;;;24.30;99.90;;;;;;5031769;28;20060;-69
2021/08/10 00:47:31;;;;;;;4.65;4.15;;;24.30;99.90;;;;;;5031722;28;20053;-69
2021/08/10 00:49:58;;;;;;;5.57;3.72;;;24.40;99.90;;;;;;5031490;28;20029;-68
2021/08/10 00:52:24;;;;;;;6.38;4.03;;;24.30;99.90;;;;;;5030138;28;20057;-69
2021/08/10 00:54:49;;;;;;;7.53;4.82;;;24.30;99.90;;;;;;5031572;28;20456;-69
2021/08/10 00:57:16;;;;;;;7.28;4.07;;;24.30;99.90;;;;;;5030579;28;20052;-69
2021/08/10 00:59:41;;;;;;;7.88;4.63;;;24.20;99.90;;;;;;5032026;28;20104;-69
2021/08/10 01:02:08;;;;;;;5.75;4.90;;;24.10;99.90;;;;;;5031485;28;20101;-69
2021/08/10 01:04:36;;;;;;;8.13;4.45;;;23.90;99.90;;;;;;5031210;28;20026;-69
2021/08/10 01:07:16;;;;;;;6.85;5.53;;;23.80;99.90;;;;;;5031794;28;20018;-69
2021/08/10 01:09:45;;;;;;;5.57;3.88;;;23.90;99.90;;;;;;5030388;28;20061;-69
2021/08/10 01:12:19;;;;;;;6.22;4.30;;;24.00;99.90;;;;;;5031903;28;20070;-69
2021/08/10 01:15:03;;;;;;;5.15;3.75;;;24.10;99.90;;;;;;5032290;28;20096;-70
2021/08/10 01:17:34;;;;;;;5.93;4.72;;;24.00;99.90;;;;;;5030203;28;20064;-70
2021/08/10 01:20:22;;;;;;;6.20;4.43;;;23.80;99.90;;;;;;5029715;28;20033;-69
2021/08/10 01:22:52;;;;;;;5.38;4.00;;;23.90;99.90;;;;;;5029955;28;20455;-69
2021/08/10 01:25:50;;;;;;;5.75;4.30;;;24.10;99.90;;;;;;5031381;28;20144;-70
2021/08/10 01:28:25;;;;;;;6.55;4.85;;;23.90;99.90;;;;;;5029938;28;20033;-69
2021/08/10 01:31:06;;;;;;;6.28;3.78;;;23.90;99.90;;;;;;5030066;28;20332;-70
2021/08/10 01:33:36;;;;;;;9.98;4.18;;;24.00;99.90;;;;;;5031292;28;20037;-70
2021/08/10 01:36:03;;;;;;;6.97;4.57;;;24.10;99.90;;;;;;5031192;28;20040;-70
2021/08/10 01:38:31;;;;;;;5.43;4.13;;;23.90;99.90;;;;;;5029853;28;20034;-70
2021/08/10 01:40:59;;;;;;;6.10;4.68;;;23.90;99.90;;;;;;5029870;28;20021;-70
2021/08/10 01:43:26;;;;;;;4.70;3.88;;;24.10;99.90;;;;;;5029803;28;20080;-69
2021/08/10 01:45:53;;;;;;;5.82;4.75;;;24.00;99.90;;;;;;5030985;28;20018;-69
2021/08/10 01:48:19;;;;;;;5.43;3.80;;;23.80;99.90;;;;;;5031267;28;20463;-70
2021/08/10 01:50:46;;;;;;;6.38;3.53;;;23.70;99.90;;;;;;5029662;28;20083;-69
2021/08/10 01:53:13;;;;;;;13.93;12.50;;;23.60;99.90;;;;;;5030824;28;20026;-69
2021/08/10 01:55:40;;;;;;;24.65;19.48;;;23.70;99.90;;;;;;5031327;28;20476;-69
2021/08/10 01:58:07;;;;;;;19.85;16.77;;;23.90;99.90;;;;;;5029116;28;20114;-70
2021/08/10 02:00:35;;;;;;;15.18;13.02;;;24.00;99.90;;;;;;5030517;28;20086;-69
2021/08/10 02:03:07;;;;;;;14.02;12.32;;;24.00;99.90;;;;;;5030739;28;20077;-69
2021/08/10 02:05:34;;;;;;;9.43;6.63;;;24.00;99.90;;;;;;5028965;28;20084;-70
2021/08/10 02:08:01;;;;;;;6.05;5.45;;;24.10;99.90;;;;;;5031977;28;20448;-68
2021/08/10 02:10:29;;;;;;;8.15;5.90;;;24.20;99.90;;;;;;5034602;28;20369;-69
2021/08/10 02:12:57;;;;;;;5.95;5.43;;;24.10;99.90;;;;;;5033397;28;20029;-69
2021/08/10 02:15:24;;;;;;;10.07;6.35;;;24.10;99.90;;;;;;5034453;28;20025;-69
2021/08/10 02:17:50;;;;;;;7.90;4.97;;;24.10;99.90;;;;;;5033455;28;20026;-69
2021/08/10 02:20:16;;;;;;;4.13;3.70;;;24.00;99.90;;;;;;5033079;28;20033;-69
2021/08/10 02:22:46;;;;;;;5.85;4.07;;;23.80;99.90;;;;;;5034607;28;20033;-70
2021/08/10 02:25:14;;;;;;;5.65;5.15;;;23.60;99.90;;;;;;5033158;28;20056;-70
2021/08/10 02:27:49;;;;;;;5.10;4.60;;;23.70;99.90;;;;;;5032923;28;20025;-70
2021/08/10 02:30:19;;;;;;;5.55;4.93;;;23.50;99.90;;;;;;5033090;28;20051;-69
2021/08/10 02:32:46;;;;;;;7.85;3.88;;;23.40;99.90;;;;;;5034749;28;20045;-69
2021/08/10 02:35:22;;;;;;;7.43;4.97;;;23.50;99.90;;;;;;5033394;28;20052;-69
2021/08/10 02:37:49;;;;;;;5.22;4.20;;;23.50;99.90;;;;;;5033958;28;20033;-69
2021/08/10 02:40:17;;;;;;;7.32;4.45;;;23.40;99.90;;;;;;5034297;28;20029;-70
2021/08/10 02:42:53;;;;;;;8.88;4.45;;;23.50;99.90;;;;;;5032649;28;20021;-70
2021/08/10 02:45:20;;;;;;;8.05;5.18;;;23.50;99.90;;;;;;5034517;28;20421;-69
2021/08/10 02:47:53;;;;;;;10.00;5.43;;;23.40;99.90;;;;;;5034406;28;20100;-70
2021/08/10 02:50:20;;;;;;;5.70;3.20;;;23.30;99.90;;;;;;5034304;28;20502;-70
2021/08/10 02:52:46;;;;;;;5.13;4.65;;;23.10;99.90;;;;;;5041424;28;20040;-70
2021/08/10 02:55:13;;;;;;;5.15;4.50;;;23.00;99.90;;;;;;5047708;28;20033;-70
2021/08/10 02:57:57;;;;;;;6.35;4.28;;;22.90;99.90;;;;;;5040109;28;20029;-68
2021/08/10 03:00:28;;;;;;;4.53;3.45;;;22.80;99.90;;;;;;5035650;28;20029;-70
2021/08/10 03:03:01;;;;;;;4.28;3.85;;;22.70;99.90;;;;;;5033239;28;20104;-70
2021/08/10 03:05:30;;;;;;;5.25;4.55;;;22.70;99.90;;;;;;5032637;28;20124;-69
2021/08/10 03:07:58;;;;;;;6.07;4.20;;;22.70;99.90;;;;;;5034161;28;20024;-69
2021/08/10 03:10:29;;;;;;;4.18;3.78;;;22.90;99.90;;;;;;5032851;28;20018;-70
2021/08/10 03:12:56;;;;;;;6.95;3.88;;;22.90;99.90;;;;;;5033581;28;20029;-70
2021/08/10 03:15:28;;;;;;;8.50;3.65;;;22.80;99.90;;;;;;5032703;28;20478;-71
2021/08/10 03:17:57;;;;;;;5.55;5.05;;;22.80;99.90;;;;;;5033172;28;20420;-70
2021/08/10 03:20:24;;;;;;;5.15;3.78;;;22.70;99.90;;;;;;5032024;28;20494;-70
2021/08/10 03:22:52;;;;;;;4.25;3.85;;;22.60;99.90;;;;;;5033698;28;20460;-69
2021/08/10 03:25:20;;;;;;;4.57;4.00;;;22.40;99.90;;;;;;5032839;28;20037;-69
2021/08/10 03:27:49;;;;;;;5.55;3.72;;;22.30;99.90;;;;;;5033469;28;20021;-70
2021/08/10 03:30:17;;;;;;;5.97;3.58;;;22.30;99.90;;;;;;5034257;28;20117;-70
2021/08/10 03:32:45;;;;;;;6.75;4.28;;;22.30;99.90;;;;;;5032991;28;20506;-70
2021/08/10 03:35:11;;;;;;;8.98;3.90;;;22.40;99.90;;;;;;5033345;28;20025;-70
2021/08/10 03:37:38;;;;;;;5.38;4.25;;;22.30;99.90;;;;;;5042845;28;20073;-70
2021/08/10 03:40:07;;;;;;;5.75;4.15;;;22.20;99.90;;;;;;5046223;28;20030;-71
2021/08/10 03:42:39;;;;;;;6.72;3.63;;;22.20;99.90;;;;;;5045414;28;20032;-70
2021/08/10 03:45:06;;;;;;;3.13;2.80;;;22.20;99.90;;;;;;5044943;28;20076;-70
2021/08/10 03:47:33;;;;;;;4.00;3.50;;;22.20;99.90;;;;;;5046578;28;20025;-70
2021/08/10 03:50:00;;;;;;;6.57;4.15;;;22.20;99.90;;;;;;5046522;28;20026;-71
2021/08/10 03:52:26;;;;;;;5.03;4.35;;;22.30;99.90;;;;;;5044856;28;20221;-70
2021/08/10 03:54:52;;;;;;;4.55;4.15;;;22.40;99.90;;;;;;5046200;28;20048;-70
2021/08/10 03:57:21;;;;;;;4.88;3.80;;;22.30;99.90;;;;;;5047349;28;20026;-71
2021/08/10 03:59:56;;;;;;;8.30;4.53;;;22.20;99.90;;;;;;5047712;28;20021;-71
2021/08/10 04:02:22;;;;;;;4.30;3.90;;;22.20;99.90;;;;;;5048033;28;20022;-71
2021/08/10 04:04:52;;;;;;;5.25;4.05;;;22.10;99.90;;;;;;5047740;28;20064;-70
2021/08/10 04:07:20;;;;;;;5.57;3.88;;;22.20;99.90;;;;;;5046697;28;20021;-70
2021/08/10 04:09:46;;;;;;;5.65;3.88;;;22.20;99.90;;;;;;5046952;28;20029;-71
2021/08/10 04:12:12;;;;;;;4.90;3.78;;;22.20;99.90;;;;;;5047357;28;20029;-72
2021/08/10 04:14:42;;;;;;;5.07;4.22;;;22.10;99.90;;;;;;5043219;28;20059;-70
2021/08/10 04:17:08;;;;;;;8.65;4.35;;;22.10;99.90;;;;;;5036246;28;20029;-69
2021/08/10 04:19:38;;;;;;;6.90;4.30;;;22.10;99.90;;;;;;5034198;28;20048;-69
2021/08/10 04:22:05;;;;;;;12.35;4.70;;;22.00;99.90;;;;;;5034003;28;20025;-69
2021/08/10 04:24:31;;;;;;;6.00;3.35;;;22.10;99.90;;;;;;5034145;28;20025;-70
2021/08/10 04:26:57;;;;;;;9.18;3.95;;;22.00;99.90;;;;;;5032894;28;20036;-70
2021/08/10 04:29:24;;;;;;;5.07;3.75;;;22.10;99.90;;;;;;5032912;28;20017;-69
2021/08/10 04:31:50;;;;;;;5.28;4.38;;;22.30;99.90;;;;;;5032371;28;20025;-69
2021/08/10 04:34:16;;;;;;;8.00;4.38;;;22.20;99.90;;;;;;5033465;28;20291;-70
2021/08/10 04:36:41;;;;;;;3.65;3.33;;;22.30;99.90;;;;;;5046370;28;20030;-71
2021/08/10 04:39:07;;;;;;;16.27;4.38;;;22.40;99.90;;;;;;5045378;28;20068;-71
2021/08/10 04:41:33;;;;;;;9.07;4.80;;;22.70;99.90;;;;;;5043581;28;20029;-70
2021/08/10 04:43:59;;;;;;;9.48;4.15;;;22.80;99.90;;;;;;5044925;28;20089;-70
2021/08/10 04:46:27;;;;;;;11.55;4.45;;;22.80;99.90;;;;;;5033754;28;20132;-70
2021/08/10 04:48:53;;;;;;;7.15;4.85;;;23.00;99.90;;;;;;5030537;28;20024;-70
2021/08/10 04:51:20;;;;;;;4.15;3.70;;;23.10;99.90;;;;;;5032350;28;20030;-69
2021/08/10 04:53:45;;;;;;;8.25;4.75;;;23.10;99.90;;;;;;5030777;28;20083;-70
2021/08/10 04:56:12;;;;;;;13.60;5.65;;;23.30;99.90;;;;;;5030354;28;20021;-69
2021/08/10 04:58:38;;;;;;;10.60;5.13;;;23.30;99.90;;;;;;5029991;28;20053;-69
2021/08/10 05:01:05;;;;;;;8.02;4.75;;;23.30;99.90;;;;;;5030375;28;20846;-70
2021/08/10 05:03:31;;;;;;;7.15;5.00;;;23.20;99.90;;;;;;5031347;28;20037;-70
2021/08/10 05:05:58;;;;;;;7.60;4.93;;;23.20;99.90;;;;;;5031479;28;20017;-69
2021/08/10 05:08:23;;;;;;;8.20;5.47;;;23.20;99.90;;;;;;5031843;28;20037;-69
2021/08/10 05:10:49;;;;;;;9.32;6.05;;;23.30;99.90;;;;;;5031989;28;20521;-70
2021/08/10 05:13:15;;;;;;;7.32;4.53;;;23.40;99.90;;;;;;5031226;28;20048;-70
2021/08/10 05:15:41;;;;;;;9.45;4.63;;;23.60;99.90;;;;;;5031483;28;20029;-70
2021/08/10 05:18:07;;;;;;;7.28;5.53;;;23.70;99.90;;;;;;5031477;28;20036;-70
2021/08/10 05:20:33;;;;;;;11.00;5.40;;;23.60;99.90;;;;;;5031007;28;20092;-70
2021/08/10 05:22:59;;;;;;;6.05;5.13;;;23.70;99.90;;;;;;5029603;28;20029;-70
2021/08/10 05:25:25;;;;;;;8.50;4.60;;;24.00;99.90;;;;;;5030896;28;20392;-70
2021/08/10 05:27:51;;;;;;;7.47;5.57;;;24.20;99.90;;;;;;5029402;28;20071;-69
2021/08/10 05:30:16;;;;;;;11.45;9.60;;;24.20;99.90;;;;;;5029524;28;20430;-70
2021/08/10 05:32:42;;;;;;;20.45;13.70;;;24.30;99.90;;;;;;5029576;28;20030;-70
2021/08/10 05:35:08;;;;;;;21.65;15.32;;;24.30;99.90;;;;;;5029432;28;20033;-69
2021/08/10 05:37:34;;;;;;;20.42;14.63;;;24.30;99.90;;;;;;5030746;28;20048;-70
2021/08/10 05:40:01;;;;;;;20.50;13.30;;;24.30;99.90;;;;;;5029719;28;20100;-70
2021/08/10 05:42:27;;;;;;;17.35;12.20;;;24.30;99.90;;;;;;5030257;28;20152;-70
2021/08/10 05:44:53;;;;;;;16.08;12.75;;;24.50;99.90;;;;;;5029628;28;20108;-70
2021/08/10 05:47:19;;;;;;;27.42;23.42;;;24.50;99.90;;;;;;5030716;28;20036;-69
2021/08/10 05:49:45;;;;;;;20.92;14.35;;;24.60;99.90;;;;;;5029466;28;20036;-70
2021/08/10 05:52:11;;;;;;;14.13;12.18;;;24.80;99.90;;;;;;5029172;28;20021;-70
2021/08/10 05:54:37;;;;;;;21.48;14.70;;;24.80;99.90;;;;;;5029572;28;20022;-70
2021/08/10 05:57:03;;;;;;;12.52;9.98;;;24.90;99.90;;;;;;5029688;28;20116;-69
2021/08/10 05:59:29;;;;;;;9.75;8.55;;;25.00;99.90;;;;;;5029752;28;20120;-70
2021/08/10 06:01:59;;;;;;;11.95;9.63;;;25.00;99.90;;;;;;5031186;28;20029;-71
2021/08/10 06:04:25;;;;;;;11.02;7.75;;;25.20;99.90;;;;;;5030082;28;20075;-70
2021/08/10 06:06:52;;;;;;;8.60;6.95;;;25.30;99.90;;;;;;5030728;28;20022;-69
2021/08/10 06:09:18;;;;;;;17.80;6.45;;;25.40;99.90;;;;;;5030412;28;20476;-69
2021/08/10 06:11:44;;;;;;;7.30;5.50;;;25.50;99.90;;;;;;5029076;28;20057;-68
2021/08/10 06:14:10;;;;;;;11.70;5.95;;;25.60;99.90;;;;;;5030469;28;20057;-70
2021/08/10 06:16:37;;;;;;;7.28;5.68;;;25.80;99.90;;;;;;5029619;28;20039;-69
2021/08/10 06:19:04;;;;;;;8.90;5.00;;;25.80;99.90;;;;;;5028937;28;20030;-69
2021/08/10 06:21:30;;;;;;;11.30;5.32;;;25.90;99.90;;;;;;5029358;28;20060;-69
2021/08/10 06:23:57;;;;;;;11.80;4.13;;;26.00;99.90;;;;;;5029647;28;20116;-70
2021/08/10 06:26:23;;;;;;;13.57;5.47;;;26.10;99.90;;;;;;5030671;28;20017;-71
2021/08/10 06:28:49;;;;;;;12.43;4.60;;;26.20;99.90;;;;;;5030472;28;20026;-70
2021/08/10 06:31:15;;;;;;;4.45;3.92;;;26.20;99.90;;;;;;5029495;28;20025;-70
2021/08/10 06:33:41;;;;;;;6.50;4.82;;;26.30;99.90;;;;;;5030161;28;20196;-71
2021/08/10 06:36:07;;;;;;;8.63;4.40;;;26.30;99.90;;;;;;5030424;28;20022;-70
2021/08/10 06:38:33;;;;;;;10.95;4.30;;;26.40;99.90;;;;;;5030196;28;20395;-70
2021/08/10 06:41:00;;;;;;;4.97;4.43;;;26.50;99.90;;;;;;5030802;28;20100;-70
2021/08/10 06:43:26;;;;;;;10.30;5.25;;;26.60;99.90;;;;;;5030219;28;20448;-70
2021/08/10 06:45:52;;;;;;;8.30;5.10;;;26.70;99.90;;;;;;5030362;28;20144;-69
2021/08/10 06:48:17;;;;;;;11.07;5.28;;;26.70;99.90;;;;;;5031112;28;20075;-68
2021/08/10 06:50:43;;;;;;;9.60;4.53;;;26.80;99.90;;;;;;5038539;28;20026;-70
2021/08/10 06:53:09;;;;;;;6.20;4.30;;;26.80;99.90;;;;;;5041980;28;20044;-69
2021/08/10 06:55:35;;;;;;;4.85;3.97;;;26.90;99.90;;;;;;5039971;28;20097;-69
2021/08/10 06:58:00;;;;;;;3.97;3.63;;;26.80;99.90;;;;;;5034959;28;20033;-69
2021/08/10 07:00:26;;;;;;;8.32;3.53;;;26.90;99.90;;;;;;5033004;28;20025;-69
2021/08/10 07:02:52;;;;;;;10.77;4.13;;;27.00;99.90;;;;;;5034031;28;20036;-68
2021/08/10 07:05:19;;;;;;;4.47;3.88;;;27.00;99.90;;;;;;5033175;28;20096;-69
2021/08/10 07:07:45;;;;;;;4.82;4.28;;;27.10;99.90;;;;;;5033548;28;20056;-70
2021/08/10 07:10:11;;;;;;;9.73;3.97;;;27.10;99.90;;;;;;5033588;28;20433;-68
2021/08/10 07:12:36;;;;;;;7.05;3.65;;;27.10;99.90;;;;;;5033407;28;20083;-68
2021/08/10 07:15:03;;;;;;;9.80;7.03;;;27.20;99.90;;;;;;5033494;28;20438;-68
2021/08/10 07:17:29;;;;;;;15.00;7.55;;;27.30;99.90;;;;;;5033194;28;20026;-70
2021/08/10 07:19:54;;;;;;;7.07;4.72;;;27.30;99.90;;;;;;5032338;28;20388;-69
2021/08/10 07:22:20;;;;;;;6.63;5.78;;;27.30;99.90;;;;;;5033410;28;20472;-69
2021/08/10 07:24:46;;;;;;;9.35;6.05;;;27.40;99.90;;;;;;5032202;28;20105;-69
2021/08/10 07:27:12;;;;;;;8.00;4.32;;;27.40;99.90;;;;;;5033108;28;20115;-69
2021/08/10 07:29:37;;;;;;;6.07;4.63;;;27.60;99.90;;;;;;5032907;28;20017;-69
2021/08/10 07:32:03;;;;;;;8.27;4.68;;;27.60;99.90;;;;;;5031731;28;20028;-69
2021/08/10 07:34:29;;;;;;;9.52;4.05;;;27.80;99.90;;;;;;5031637;28;20084;-69
2021/08/10 07:36:55;;;;;;;9.85;4.22;;;27.90;99.90;;;;;;5033173;28;20048;-69
2021/08/10 07:39:21;;;;;;;4.80;4.25;;;27.90;99.90;;;;;;5031504;28;20451;-69
2021/08/10 07:41:46;;;;;;;4.10;3.70;;;28.00;99.90;;;;;;5031202;28;20052;-69
2021/08/10 07:44:12;;;;;;;7.57;4.78;;;28.00;99.90;;;;;;5032735;28;20029;-69
2021/08/10 07:46:38;;;;;;;9.90;3.97;;;28.10;99.90;;;;;;5033013;28;20026;-69
2021/08/10 07:49:04;;;;;;;6.53;4.15;;;28.20;99.90;;;;;;5031227;28;20536;-69
2021/08/10 07:51:30;;;;;;;7.28;3.95;;;28.30;99.90;;;;;;5032643;28;20021;-69
2021/08/10 07:53:56;;;;;;;5.03;3.50;;;28.50;99.90;;;;;;5032424;28;20097;-69
2021/08/10 07:56:21;;;;;;;3.58;3.28;;;28.60;99.90;;;;;;5030974;28;20120;-69
2021/08/10 07:58:47;;;;;;;6.85;4.28;;;28.60;99.90;;;;;;5031947;28;20037;-69
2021/08/10 08:01:13;;;;;;;3.35;3.05;;;28.80;99.90;;;;;;5031038;28;20025;-69
2021/08/10 08:03:38;;;;;;;6.05;4.18;;;28.80;99.90;;;;;;5032436;28;20048;-70
2021/08/10 08:06:04;;;;;;;8.35;3.67;;;28.90;99.90;;;;;;5029722;28;20022;-69
2021/08/10 08:08:30;;;;;;;3.95;3.58;;;29.10;99.90;;;;;;5032277;28;20024;-69
2021/08/10 08:10:57;;;;;;;5.68;4.30;;;29.10;99.90;;;;;;5032070;28;20030;-69
2021/08/10 08:13:25;;;;;;;7.90;4.60;;;29.10;99.90;;;;;;5030494;28;20025;-69
2021/08/10 08:15:52;;;;;;;8.50;4.45;;;29.10;99.90;;;;;;5030620;28;20030;-69
2021/08/10 08:18:19;;;;;;;12.80;4.50;;;29.00;99.90;;;;;;5031864;28;20029;-68
2021/08/10 08:20:46;;;;;;;6.28;4.43;;;28.90;99.90;;;;;;5032203;28;20117;-70
2021/08/10 08:23:13;;;;;;;4.63;3.90;;;28.80;99.90;;;;;;5032032;28;20022;-70
2021/08/10 08:25:38;;;;;;;8.02;4.20;;;28.80;99.90;;;;;;5030638;28;20033;-70
2021/08/10 08:28:08;;;;;;;9.30;4.28;;;28.80;99.90;;;;;;5031735;28;20080;-69
2021/08/10 08:30:35;;;;;;;5.57;4.55;;;28.80;99.90;;;;;;5032406;28;20024;-69
2021/08/10 08:33:01;;;;;;;8.25;5.28;;;28.70;99.90;;;;;;5031742;28;20029;-70
2021/08/10 08:35:27;;;;;;;23.90;5.50;;;28.60;99.90;;;;;;5030507;28;20434;-70
2021/08/10 08:37:53;;;;;;;12.13;4.85;;;28.80;99.90;;;;;;5030460;28;20039;-70
2021/08/10 08:40:20;;;;;;;5.75;4.90;;;28.80;99.90;;;;;;5030837;28;20112;-70
2021/08/10 08:42:45;;;;;;;10.50;5.63;;;28.90;99.90;;;;;;5031683;28;20082;-70
2021/08/10 08:45:11;;;;;;;11.18;4.55;;;28.80;99.90;;;;;;5030405;28;20426;-69
2021/08/10 08:47:46;;;;;;;16.20;5.05;;;28.80;99.90;;;;;;5031379;28;20143;-70
2021/08/10 08:50:12;;;;;;;11.63;5.57;;;28.80;99.90;;;;;;5031739;28;20100;-69
2021/08/10 08:52:44;;;;;;;10.95;6.05;;;28.80;99.90;;;;;;5030134;28;20113;-70
2021/08/10 08:55:13;;;;;;;12.45;5.72;;;28.80;99.90;;;;;;5031663;28;20056;-69
2021/08/10 08:57:39;;;;;;;7.18;5.57;;;28.80;99.90;;;;;;5031379;28;20116;-70
2021/08/10 09:00:05;;;;;;;5.93;4.90;;;28.70;99.90;;;;;;5031831;28;20056;-70
2021/08/10 09:02:31;;;;;;;9.65;5.90;;;28.80;99.90;;;;;;5030254;28;20168;-69
2021/08/10 09:04:56;;;;;;;8.00;5.82;;;28.80;99.90;;;;;;5029714;28;20496;-70
2021/08/10 09:07:28;;;;;;;7.70;4.63;;;28.80;99.90;;;;;;5030261;28;20021;-71
2021/08/10 09:10:29;;;;;;;6.18;4.53;;;28.70;99.90;;;;;;5032161;28;20212;-70
2021/08/10 09:12:56;;;;;;;8.25;5.18;;;28.70;99.90;;;;;;5038700;28;20090;-70
2021/08/10 09:15:44;;;;;;;5.18;4.75;;;28.50;99.90;;;;;;5043924;28;20017;-69
2021/08/10 09:18:17;;;;;;;7.78;5.82;;;28.60;99.90;;;;;;5043298;28;20080;-70
2021/08/10 09:21:09;;;;;;;9.35;5.35;;;28.60;99.90;;;;;;5038458;28;20056;-69
2021/08/10 09:23:45;;;;;;;8.05;5.30;;;28.50;99.90;;;;;;5030814;28;20041;-69
2021/08/10 09:26:16;;;;;;;7.18;5.30;;;28.50;99.90;;;;;;5031141;28;20108;-70
2021/08/10 09:28:42;;;;;;;6.70;5.30;;;28.60;99.90;;;;;;5030903;28;20387;-70
2021/08/10 09:31:33;;;;;;;4.80;4.35;;;28.60;99.90;;;;;;5031619;28;20104;-71
2021/08/10 09:34:04;;;;;;;12.57;5.53;;;28.60;99.90;;;;;;5030249;28;20037;-71
2021/08/10 09:36:31;;;;;;;12.13;5.60;;;28.50;99.90;;;;;;5030450;28;20029;-71
2021/08/10 09:38:57;;;;;;;8.45;4.72;;;28.60;99.90;;;;;;5031695;28;20056;-71
2021/08/10 09:41:25;;;;;;;5.45;4.53;;;28.70;99.90;;;;;;5031594;28;20025;-71
2021/08/10 09:44:06;;;;;;;4.80;4.40;;;28.80;99.90;;;;;;5031597;28;20391;-70
2021/08/10 09:46:33;;;;;;;7.82;5.20;;;28.90;99.90;;;;;;5029825;28;20018;-71
2021/08/10 09:49:01;;;;;;;12.93;5.68;;;28.90;99.90;;;;;;5029810;28;20037;-69
2021/08/10 09:51:29;;;;;;;7.95;5.70;;;28.90;99.90;;;;;;5030874;28;20025;-70
2021/08/10 09:54:02;;;;;;;7.13;5.55;;;29.00;99.90;;;;;;5029514;28;20032;-71
2021/08/10 09:57:03;;;;;;;7.18;5.00;;;29.00;99.90;;;;;;5030760;28;20028;-71
2021/08/10 09:59:44;;;;;;;10.52;5.30;;;29.10;99.90;;;;;;5029197;28;20423;-69
2021/08/10 10:02:18;;;;;;;6.03;5.43;;;29.20;99.90;;;;;;5029222;28;20025;-69
2021/08/10 10:04:57;;;;;;;6.88;4.38;;;29.20;99.90;;;;;;5030119;28;20034;-70
2021/08/10 10:07:24;;;;;;;9.95;5.57;;;29.00;99.90;;;;;;5030524;28;20061;-69
2021/08/10 10:09:51;;;;;;;6.68;5.50;;;29.00;99.90;;;;;;5030111;28;20030;-69
2021/08/10 10:12:19;;;;;;;8.50;4.95;;;28.90;99.90;;;;;;5030689;28;20021;-69
2021/08/10 10:14:47;;;;;;;10.88;5.88;;;28.90;99.90;;;;;;5031256;28;20551;-70
2021/08/10 10:17:14;;;;;;;6.32;4.40;;;28.80;99.90;;;;;;5031023;28;20029;-70
2021/08/10 10:19:45;;;;;;;8.38;4.47;;;28.80;99.90;;;;;;5030608;28;20373;-70
2021/08/10 10:22:17;;;;;;;14.05;4.80;;;28.70;99.90;;;;;;5030476;28;20031;-70
2021/08/10 10:24:54;;;;;;;4.75;4.03;;;28.70;99.90;;;;;;5030612;28;20492;-70
2021/08/10 10:27:21;;;;;;;8.95;4.32;;;28.70;99.90;;;;;;5029215;28;20077;-70
2021/08/10 10:29:49;;;;;;;5.30;4.45;;;28.70;99.90;;;;;;5032801;28;20555;-70
2021/08/10 10:32:17;;;;;;;12.98;5.47;;;28.80;99.90;;;;;;5034776;28;20022;-70
2021/08/10 10:34:44;;;;;;;7.88;4.85;;;29.00;99.90;;;;;;5033439;28;20026;-70
2021/08/10 10:37:11;;;;;;;6.72;3.95;;;29.10;99.90;;;;;;5033067;28;20032;-70
2021/08/10 10:39:41;;;;;;;9.70;4.57;;;29.10;99.90;;;;;;5032963;28;20601;-71
2021/08/10 10:42:13;;;;;;;5.38;4.10;;;29.20;99.90;;;;;;5033913;28;20040;-69
2021/08/10 10:44:41;;;;;;;5.40;4.43;;;29.40;99.90;;;;;;5033982;28;20037;-70
2021/08/10 10:47:25;;;;;;;6.22;4.40;;;29.50;99.90;;;;;;5043542;28;20029;-69
2021/08/10 10:49:57;;;;;;;5.82;4.68;;;29.50;99.90;;;;;;5045845;28;20438;-70
2021/08/10 10:52:24;;;;;;;6.10;4.63;;;29.50;99.90;;;;;;5036786;28;20025;-70
2021/08/10 10:54:52;;;;;;;13.05;4.82;;;29.50;99.90;;;;;;5033360;28;20036;-69
2021/08/10 10:57:30;;;;;;;5.20;4.47;;;29.50;99.90;;;;;;5034973;28;20040;-72
2021/08/10 11:00:20;;;;;;;5.22;4.00;;;29.40;99.90;;;;;;5034677;28;20048;-69
2021/08/10 11:03:11;;;;;;;9.27;4.32;;;29.60;99.90;;;;;;5034453;28;20112;-69
2021/08/10 11:05:37;;;;;;;5.53;4.35;;;29.80;99.90;;;;;;5030871;28;20036;-70
2021/08/10 11:08:05;;;;;;;9.38;3.90;;;29.80;99.90;;;;;;5032259;28;20025;-71
2021/08/10 11:10:37;;;;;;;6.40;4.65;;;29.90;99.90;;;;;;5033659;28;20056;-70
2021/08/10 11:13:05;;;;;;;5.75;3.30;;;30.00;99.90;;;;;;5033497;28;20463;-70
2021/08/10 11:15:46;;;;;;;10.05;4.40;;;30.00;99.90;;;;;;5032137;28;20053;-69
2021/08/10 11:18:12;;;;;;;9.65;4.57;;;30.10;99.90;;;;;;5033078;28;20112;-70
2021/08/10 11:20:49;;;;;;;7.00;4.32;;;30.00;99.90;;;;;;5033220;28;20492;-70
2021/08/10 11:23:24;;;;;;;5.72;3.75;;;30.00;99.90;;;;;;5032957;28;20491;-69
2021/08/10 11:25:51;;;;;;;5.38;3.25;;;30.00;99.90;;;;;;5033335;28;20376;-71
2021/08/10 11:28:36;;;;;;;7.15;3.58;;;30.00;99.90;;;;;;5031831;28;20360;-69
2021/08/10 11:31:08;;;;;;;9.25;4.70;;;30.10;99.90;;;;;;5031786;28;20495;-71
2021/08/10 11:33:38;;;;;;;4.78;3.65;;;30.10;99.90;;;;;;5033021;28;20076;-71
2021/08/10 11:36:10;;;;;;;10.50;3.83;;;30.10;99.90;;;;;;5031555;28;20061;-69
2021/08/10 11:38:45;;;;;;;6.95;3.67;;;30.10;99.90;;;;;;5031361;28;20040;-69
2021/08/10 11:41:28;;;;;;;6.50;4.03;;;30.20;99.90;;;;;;5030644;28;20021;-69
2021/08/10 11:43:56;;;;;;;8.38;3.60;;;30.20;99.90;;;;;;5031413;28;20056;-70
2021/08/10 11:46:23;;;;;;;7.60;4.35;;;30.20;99.90;;;;;;5031400;28;20026;-72
2021/08/10 11:48:51;;;;;;;5.75;4.07;;;30.20;99.90;;;;;;5032699;28;20028;-70
2021/08/10 11:51:24;;;;;;;7.45;4.32;;;30.20;99.90;;;;;;5031168;28;20030;-70
2021/08/10 11:53:52;;;;;;;7.28;3.28;;;30.40;99.90;;;;;;5031253;28;20116;-70
2021/08/10 11:56:23;;;;;;;12.32;3.60;;;30.50;99.90;;;;;;5031230;28;20125;-70
2021/08/10 11:58:50;;;;;;;9.48;4.40;;;30.70;99.90;;;;;;5032324;28;20028;-69
2021/08/10 12:01:15;;;;;;;10.68;4.90;;;30.70;99.90;;;;;;5032835;28;20033;-69
2021/08/10 12:03:41;;;;;;;14.23;4.57;;;30.80;99.90;;;;;;5032455;28;20029;-70
2021/08/10 12:06:07;;;;;;;5.20;3.83;;;30.90;99.90;;;;;;5033038;28;20030;-70
2021/08/10 12:08:36;;;;;;;6.70;4.15;;;30.90;99.90;;;;;;5032698;28;20064;-70
2021/08/10 12:11:01;;;;;;;10.13;3.70;;;31.00;99.90;;;;;;5031930;28;20022;-70
2021/08/10 12:13:29;;;;;;;5.22;4.72;;;31.20;99.90;;;;;;5032456;28;20117;-71
2021/08/10 12:15:55;;;;;;;6.85;3.78;;;31.30;99.90;;;;;;5032410;28;20368;-69
2021/08/10 12:18:24;;;;;;;4.70;3.72;;;31.20;99.90;;;;;;5032380;28;20395;-71
2021/08/10 12:21:08;;;;;;;6.50;3.47;;;31.10;99.90;;;;;;5031605;28;20033;-71
2021/08/10 12:23:39;;;;;;;12.70;4.70;;;30.90;99.90;;;;;;5032110;28;20028;-70
2021/08/10 12:26:13;;;;;;;7.18;4.13;;;30.80;99.90;;;;;;5032871;28;20495;-70
2021/08/10 12:28:56;;;;;;;7.88;4.25;;;30.80;99.90;;;;;;5030717;28;20033;-70
2021/08/10 12:31:22;;;;;;;8.20;3.78;;;30.90;99.90;;;;;;5032591;28;20164;-70
2021/08/10 12:33:53;;;;;;;5.38;3.80;;;30.90;99.90;;;;;;5031949;28;20112;-71
2021/08/10 12:36:20;;;;;;;8.02;3.53;;;31.00;99.90;;;;;;5032025;28;20038;-71
2021/08/10 12:38:47;;;;;;;8.35;3.85;;;31.10;99.90;;;;;;5030610;28;20586;-70
2021/08/10 12:41:13;;;;;;;6.28;3.65;;;31.40;99.90;;;;;;5031705;28;20387;-70
2021/08/10 12:43:40;;;;;;;4.97;4.05;;;31.70;99.90;;;;;;5030318;28;20029;-69
2021/08/10 12:46:32;;;;;;;5.72;3.45;;;31.80;99.90;;;;;;5031198;28;20159;-70
2021/08/10 12:49:13;;;;;;;4.28;3.45;;;31.70;99.90;;;;;;5029707;28;20479;-69
2021/08/10 12:51:57;;;;;;;7.25;4.15;;;31.30;99.90;;;;;;5031268;28;20040;-69
2021/08/10 12:54:26;;;;;;;5.35;3.47;;;31.40;99.90;;;;;;5031600;28;20030;-69